sensor_id;sensor_type;location;lat;lon;timestamp;P1;durP1;ratioP1;P2;durP2;ratioP2
55114;SDS011;41010;53.252;5.786;2023-11-18T00:00:16;28.05;;;12.75;;
55114;SDS011;41010;53.252;5.786;2023-11-18T00:02:44;31.92;;;13.73;;
55114;SDS011;41010;53.252;5.786;2023-11-18T00:05:11;33.67;;;13.35;;
55114;SDS011;41010;53.252;5.786;2023-11-18T00:07:39;34.67;;;13.70;;
55114;SDS011;41010;53.252;5.786;2023-11-18T00:10:06;29.25;;;12.35;;
55114;SDS011;41010;53.252;5.786;2023-11-18T00:12:36;31.80;;;13.63;;
55114;SDS011;41010;53.252;5.786;2023-11-18T00:15:06;29.92;;;13.23;;
55114;SDS011;41010;53.252;5.786;2023-11-18T00:17:36;36.13;;;13.32;;
55114;SDS011;41010;53.252;5.786;2023-11-18T00:20:04;29.77;;;12.70;;
55114;SDS011;41010;53.252;5.786;2023-11-18T00:22:34;35.72;;;14.07;;
55114;SDS011;41010;53.252;5.786;2023-11-18T00:25:01;39.65;;;14.98;;
55114;SDS011;41010;53.252;5.786;2023-11-18T00:27:30;37.92;;;15.48;;
55114;SDS011;41010;53.252;5.786;2023-11-18T00:29:59;39.92;;;15.05;;
55114;SDS011;41010;53.252;5.786;2023-11-18T00:32:26;42.63;;;15.18;;
55114;SDS011;41010;53.252;5.786;2023-11-18T00:34:53;44.75;;;15.93;;
55114;SDS011;41010;53.252;5.786;2023-11-18T00:37:20;36.83;;;15.50;;
55114;SDS011;41010;53.252;5.786;2023-11-18T00:39:48;52.38;;;16.65;;
55114;SDS011;41010;53.252;5.786;2023-11-18T00:42:15;41.78;;;15.35;;
55114;SDS011;41010;53.252;5.786;2023-11-18T00:44:42;39.72;;;15.20;;
55114;SDS011;41010;53.252;5.786;2023-11-18T00:47:11;34.67;;;13.68;;
55114;SDS011;41010;53.252;5.786;2023-11-18T00:49:38;41.33;;;15.52;;
55114;SDS011;41010;53.252;5.786;2023-11-18T00:52:05;37.83;;;14.43;;
55114;SDS011;41010;53.252;5.786;2023-11-18T00:54:34;39.80;;;14.02;;
55114;SDS011;41010;53.252;5.786;2023-11-18T00:57:02;33.65;;;13.02;;
55114;SDS011;41010;53.252;5.786;2023-11-18T00:59:29;41.20;;;14.07;;
55114;SDS011;41010;53.252;5.786;2023-11-18T01:01:56;40.70;;;15.13;;
55114;SDS011;41010;53.252;5.786;2023-11-18T01:04:25;44.45;;;15.00;;
55114;SDS011;41010;53.252;5.786;2023-11-18T01:06:52;43.00;;;15.20;;
55114;SDS011;41010;53.252;5.786;2023-11-18T01:09:20;44.63;;;16.10;;
55114;SDS011;41010;53.252;5.786;2023-11-18T01:11:47;45.72;;;16.17;;
55114;SDS011;41010;53.252;5.786;2023-11-18T01:14:14;52.28;;;15.73;;
55114;SDS011;41010;53.252;5.786;2023-11-18T01:16:42;54.28;;;18.20;;
55114;SDS011;41010;53.252;5.786;2023-11-18T01:19:10;41.45;;;15.60;;
55114;SDS011;41010;53.252;5.786;2023-11-18T01:21:39;48.25;;;16.02;;
55114;SDS011;41010;53.252;5.786;2023-11-18T01:24:07;50.13;;;15.95;;
55114;SDS011;41010;53.252;5.786;2023-11-18T01:26:34;49.08;;;16.67;;
55114;SDS011;41010;53.252;5.786;2023-11-18T01:29:02;45.33;;;15.70;;
55114;SDS011;41010;53.252;5.786;2023-11-18T01:31:29;46.05;;;16.55;;
55114;SDS011;41010;53.252;5.786;2023-11-18T01:33:57;47.22;;;17.75;;
55114;SDS011;41010;53.252;5.786;2023-11-18T01:36:25;50.85;;;17.00;;
55114;SDS011;41010;53.252;5.786;2023-11-18T01:38:54;50.85;;;17.10;;
55114;SDS011;41010;53.252;5.786;2023-11-18T01:41:22;57.78;;;18.10;;
55114;SDS011;41010;53.252;5.786;2023-11-18T01:43:49;53.03;;;18.20;;
55114;SDS011;41010;53.252;5.786;2023-11-18T01:46:16;56.72;;;19.77;;
55114;SDS011;41010;53.252;5.786;2023-11-18T01:48:45;52.70;;;18.30;;
55114;SDS011;41010;53.252;5.786;2023-11-18T01:51:12;51.28;;;17.90;;
55114;SDS011;41010;53.252;5.786;2023-11-18T01:53:40;65.90;;;19.83;;
55114;SDS011;41010;53.252;5.786;2023-11-18T01:56:10;60.83;;;18.73;;
55114;SDS011;41010;53.252;5.786;2023-11-18T01:58:38;59.63;;;18.88;;
55114;SDS011;41010;53.252;5.786;2023-11-18T02:01:06;73.55;;;19.27;;
55114;SDS011;41010;53.252;5.786;2023-11-18T02:03:35;60.88;;;19.10;;
55114;SDS011;41010;53.252;5.786;2023-11-18T02:06:03;55.55;;;18.80;;
55114;SDS011;41010;53.252;5.786;2023-11-18T02:08:31;60.17;;;19.25;;
55114;SDS011;41010;53.252;5.786;2023-11-18T02:11:01;56.33;;;18.95;;
55114;SDS011;41010;53.252;5.786;2023-11-18T02:13:39;64.38;;;19.38;;
55114;SDS011;41010;53.252;5.786;2023-11-18T02:16:07;70.15;;;21.15;;
55114;SDS011;41010;53.252;5.786;2023-11-18T02:18:35;61.50;;;19.42;;
55114;SDS011;41010;53.252;5.786;2023-11-18T02:21:05;65.25;;;19.77;;
55114;SDS011;41010;53.252;5.786;2023-11-18T02:23:34;78.13;;;20.33;;
55114;SDS011;41010;53.252;5.786;2023-11-18T02:26:04;61.33;;;18.38;;
55114;SDS011;41010;53.252;5.786;2023-11-18T02:28:31;65.80;;;20.50;;
55114;SDS011;41010;53.252;5.786;2023-11-18T02:31:00;69.72;;;21.23;;
55114;SDS011;41010;53.252;5.786;2023-11-18T02:33:31;68.13;;;21.48;;
55114;SDS011;41010;53.252;5.786;2023-11-18T02:36:05;72.20;;;22.25;;
55114;SDS011;41010;53.252;5.786;2023-11-18T02:38:45;72.35;;;22.13;;
55114;SDS011;41010;53.252;5.786;2023-11-18T02:41:16;76.30;;;22.55;;
55114;SDS011;41010;53.252;5.786;2023-11-18T02:43:44;71.63;;;21.70;;
55114;SDS011;41010;53.252;5.786;2023-11-18T02:46:12;58.67;;;20.48;;
55114;SDS011;41010;53.252;5.786;2023-11-18T02:48:40;72.85;;;21.75;;
55114;SDS011;41010;53.252;5.786;2023-11-18T02:51:07;72.82;;;22.17;;
55114;SDS011;41010;53.252;5.786;2023-11-18T02:53:37;76.55;;;23.38;;
55114;SDS011;41010;53.252;5.786;2023-11-18T02:56:06;71.25;;;22.85;;
55114;SDS011;41010;53.252;5.786;2023-11-18T02:58:35;71.78;;;23.13;;
55114;SDS011;41010;53.252;5.786;2023-11-18T03:01:03;73.65;;;21.15;;
55114;SDS011;41010;53.252;5.786;2023-11-18T03:03:30;92.55;;;24.77;;
55114;SDS011;41010;53.252;5.786;2023-11-18T03:05:57;80.22;;;23.65;;
55114;SDS011;41010;53.252;5.786;2023-11-18T03:08:25;75.50;;;23.52;;
55114;SDS011;41010;53.252;5.786;2023-11-18T03:10:54;84.30;;;24.10;;
55114;SDS011;41010;53.252;5.786;2023-11-18T03:13:23;70.18;;;23.80;;
55114;SDS011;41010;53.252;5.786;2023-11-18T03:15:52;84.65;;;23.52;;
55114;SDS011;41010;53.252;5.786;2023-11-18T03:18:20;77.90;;;24.02;;
55114;SDS011;41010;53.252;5.786;2023-11-18T03:20:48;77.57;;;22.75;;
55114;SDS011;41010;53.252;5.786;2023-11-18T03:23:15;95.50;;;25.40;;
55114;SDS011;41010;53.252;5.786;2023-11-18T03:25:42;85.30;;;25.30;;
55114;SDS011;41010;53.252;5.786;2023-11-18T03:28:09;80.82;;;24.45;;
55114;SDS011;41010;53.252;5.786;2023-11-18T03:30:36;85.18;;;25.30;;
55114;SDS011;41010;53.252;5.786;2023-11-18T03:33:05;83.63;;;25.08;;
55114;SDS011;41010;53.252;5.786;2023-11-18T03:35:36;79.18;;;24.55;;
55114;SDS011;41010;53.252;5.786;2023-11-18T03:38:03;81.85;;;25.15;;
55114;SDS011;41010;53.252;5.786;2023-11-18T03:40:31;87.25;;;26.38;;
55114;SDS011;41010;53.252;5.786;2023-11-18T03:43:00;90.63;;;25.73;;
55114;SDS011;41010;53.252;5.786;2023-11-18T03:45:28;88.35;;;24.95;;
55114;SDS011;41010;53.252;5.786;2023-11-18T03:47:55;86.15;;;25.08;;
55114;SDS011;41010;53.252;5.786;2023-11-18T03:50:24;88.63;;;25.17;;
55114;SDS011;41010;53.252;5.786;2023-11-18T03:52:51;94.47;;;25.73;;
55114;SDS011;41010;53.252;5.786;2023-11-18T03:55:19;83.00;;;24.73;;
55114;SDS011;41010;53.252;5.786;2023-11-18T03:57:46;75.35;;;24.52;;
55114;SDS011;41010;53.252;5.786;2023-11-18T04:00:15;83.55;;;26.08;;
55114;SDS011;41010;53.252;5.786;2023-11-18T04:02:42;88.45;;;24.52;;
55114;SDS011;41010;53.252;5.786;2023-11-18T04:05:11;74.93;;;23.40;;
55114;SDS011;41010;53.252;5.786;2023-11-18T04:07:39;77.00;;;23.27;;
55114;SDS011;41010;53.252;5.786;2023-11-18T04:10:07;75.45;;;23.88;;
55114;SDS011;41010;53.252;5.786;2023-11-18T04:12:35;76.35;;;22.90;;
55114;SDS011;41010;53.252;5.786;2023-11-18T04:15:03;65.93;;;22.00;;
55114;SDS011;41010;53.252;5.786;2023-11-18T04:17:31;70.75;;;22.40;;
55114;SDS011;41010;53.252;5.786;2023-11-18T04:19:58;70.47;;;21.90;;
55114;SDS011;41010;53.252;5.786;2023-11-18T04:22:25;81.40;;;22.42;;
55114;SDS011;41010;53.252;5.786;2023-11-18T04:24:54;69.63;;;22.75;;
55114;SDS011;41010;53.252;5.786;2023-11-18T04:27:21;85.85;;;27.83;;
55114;SDS011;41010;53.252;5.786;2023-11-18T04:29:48;91.03;;;28.13;;
55114;SDS011;41010;53.252;5.786;2023-11-18T04:32:16;105.93;;;31.35;;
55114;SDS011;41010;53.252;5.786;2023-11-18T04:34:43;98.10;;;31.73;;
55114;SDS011;41010;53.252;5.786;2023-11-18T04:37:10;101.60;;;30.35;;
55114;SDS011;41010;53.252;5.786;2023-11-18T04:39:37;84.93;;;28.92;;
55114;SDS011;41010;53.252;5.786;2023-11-18T04:42:06;79.72;;;24.70;;
55114;SDS011;41010;53.252;5.786;2023-11-18T04:44:33;81.95;;;23.67;;
55114;SDS011;41010;53.252;5.786;2023-11-18T04:47:01;80.47;;;23.67;;
55114;SDS011;41010;53.252;5.786;2023-11-18T04:49:28;69.88;;;22.38;;
55114;SDS011;41010;53.252;5.786;2023-11-18T04:51:55;70.93;;;21.55;;
55114;SDS011;41010;53.252;5.786;2023-11-18T04:54:24;70.93;;;20.50;;
55114;SDS011;41010;53.252;5.786;2023-11-18T04:56:51;67.78;;;21.52;;
55114;SDS011;41010;53.252;5.786;2023-11-18T04:59:19;66.22;;;20.65;;
55114;SDS011;41010;53.252;5.786;2023-11-18T05:01:47;62.67;;;22.23;;
55114;SDS011;41010;53.252;5.786;2023-11-18T05:04:14;71.93;;;22.38;;
55114;SDS011;41010;53.252;5.786;2023-11-18T05:06:42;78.75;;;21.73;;
55114;SDS011;41010;53.252;5.786;2023-11-18T05:09:09;72.38;;;22.77;;
55114;SDS011;41010;53.252;5.786;2023-11-18T05:11:37;72.38;;;22.35;;
55114;SDS011;41010;53.252;5.786;2023-11-18T05:14:04;78.03;;;22.30;;
55114;SDS011;41010;53.252;5.786;2023-11-18T05:16:33;70.85;;;22.70;;
55114;SDS011;41010;53.252;5.786;2023-11-18T05:19:00;77.35;;;22.02;;
55114;SDS011;41010;53.252;5.786;2023-11-18T05:21:29;73.40;;;21.25;;
55114;SDS011;41010;53.252;5.786;2023-11-18T05:23:56;76.93;;;22.00;;
55114;SDS011;41010;53.252;5.786;2023-11-18T05:26:23;72.85;;;21.23;;
55114;SDS011;41010;53.252;5.786;2023-11-18T05:28:52;77.85;;;22.17;;
55114;SDS011;41010;53.252;5.786;2023-11-18T05:31:19;69.82;;;21.95;;
55114;SDS011;41010;53.252;5.786;2023-11-18T05:33:49;71.20;;;21.38;;
55114;SDS011;41010;53.252;5.786;2023-11-18T05:36:20;70.25;;;22.00;;
55114;SDS011;41010;53.252;5.786;2023-11-18T05:38:52;79.13;;;23.17;;
55114;SDS011;41010;53.252;5.786;2023-11-18T05:41:20;74.15;;;22.52;;
55114;SDS011;41010;53.252;5.786;2023-11-18T05:43:53;76.68;;;23.52;;
55114;SDS011;41010;53.252;5.786;2023-11-18T05:46:22;73.40;;;22.88;;
55114;SDS011;41010;53.252;5.786;2023-11-18T05:48:55;75.25;;;23.30;;
55114;SDS011;41010;53.252;5.786;2023-11-18T05:51:25;75.30;;;22.58;;
55114;SDS011;41010;53.252;5.786;2023-11-18T05:53:54;71.80;;;23.10;;
55114;SDS011;41010;53.252;5.786;2023-11-18T05:56:21;77.95;;;21.73;;
55114;SDS011;41010;53.252;5.786;2023-11-18T05:58:49;80.75;;;23.48;;
55114;SDS011;41010;53.252;5.786;2023-11-18T06:01:18;74.18;;;22.67;;
55114;SDS011;41010;53.252;5.786;2023-11-18T06:03:46;81.43;;;23.92;;
55114;SDS011;41010;53.252;5.786;2023-11-18T06:06:15;90.43;;;24.00;;
55114;SDS011;41010;53.252;5.786;2023-11-18T06:08:42;88.85;;;24.38;;
55114;SDS011;41010;53.252;5.786;2023-11-18T06:11:10;71.78;;;22.77;;
55114;SDS011;41010;53.252;5.786;2023-11-18T06:13:41;84.82;;;23.95;;
55114;SDS011;41010;53.252;5.786;2023-11-18T06:16:15;80.00;;;23.10;;
55114;SDS011;41010;53.252;5.786;2023-11-18T06:18:42;71.78;;;22.17;;
55114;SDS011;41010;53.252;5.786;2023-11-18T06:21:15;77.65;;;23.00;;
55114;SDS011;41010;53.252;5.786;2023-11-18T06:23:43;72.05;;;22.15;;
55114;SDS011;41010;53.252;5.786;2023-11-18T06:26:12;73.32;;;22.30;;
55114;SDS011;41010;53.252;5.786;2023-11-18T06:28:40;75.65;;;23.20;;
55114;SDS011;41010;53.252;5.786;2023-11-18T06:31:07;80.72;;;23.27;;
55114;SDS011;41010;53.252;5.786;2023-11-18T06:33:38;69.40;;;22.80;;
55114;SDS011;41010;53.252;5.786;2023-11-18T06:36:08;90.35;;;23.75;;
55114;SDS011;41010;53.252;5.786;2023-11-18T06:38:37;81.40;;;23.80;;
55114;SDS011;41010;53.252;5.786;2023-11-18T06:41:05;67.80;;;22.42;;
55114;SDS011;41010;53.252;5.786;2023-11-18T06:43:36;73.38;;;22.85;;
55114;SDS011;41010;53.252;5.786;2023-11-18T06:46:17;74.47;;;23.30;;
55114;SDS011;41010;53.252;5.786;2023-11-18T06:48:46;73.65;;;22.63;;
55114;SDS011;41010;53.252;5.786;2023-11-18T06:51:14;88.72;;;22.30;;
55114;SDS011;41010;53.252;5.786;2023-11-18T06:53:43;81.72;;;23.35;;
55114;SDS011;41010;53.252;5.786;2023-11-18T06:56:10;78.95;;;23.63;;
55114;SDS011;41010;53.252;5.786;2023-11-18T06:58:38;87.10;;;23.35;;
55114;SDS011;41010;53.252;5.786;2023-11-18T07:01:06;79.07;;;23.70;;
55114;SDS011;41010;53.252;5.786;2023-11-18T07:03:33;88.47;;;24.88;;
55114;SDS011;41010;53.252;5.786;2023-11-18T07:06:01;84.07;;;24.55;;
55114;SDS011;41010;53.252;5.786;2023-11-18T07:08:30;81.82;;;25.20;;
55114;SDS011;41010;53.252;5.786;2023-11-18T07:11:01;80.65;;;24.40;;
55114;SDS011;41010;53.252;5.786;2023-11-18T07:13:29;83.15;;;23.65;;
55114;SDS011;41010;53.252;5.786;2023-11-18T07:15:56;80.32;;;24.00;;
55114;SDS011;41010;53.252;5.786;2023-11-18T07:18:23;81.15;;;24.77;;
55114;SDS011;41010;53.252;5.786;2023-11-18T07:20:51;77.88;;;24.35;;
55114;SDS011;41010;53.252;5.786;2023-11-18T07:23:18;87.22;;;24.20;;
55114;SDS011;41010;53.252;5.786;2023-11-18T07:25:45;91.72;;;23.63;;
55114;SDS011;41010;53.252;5.786;2023-11-18T07:28:14;77.72;;;23.42;;
55114;SDS011;41010;53.252;5.786;2023-11-18T07:30:42;82.65;;;24.55;;
55114;SDS011;41010;53.252;5.786;2023-11-18T07:33:12;79.43;;;24.70;;
55114;SDS011;41010;53.252;5.786;2023-11-18T07:35:40;82.63;;;23.35;;
55114;SDS011;41010;53.252;5.786;2023-11-18T07:38:07;76.82;;;22.73;;
55114;SDS011;41010;53.252;5.786;2023-11-18T07:40:35;81.97;;;24.50;;
55114;SDS011;41010;53.252;5.786;2023-11-18T07:43:07;75.53;;;23.55;;
55114;SDS011;41010;53.252;5.786;2023-11-18T07:45:36;79.22;;;23.98;;
55114;SDS011;41010;53.252;5.786;2023-11-18T07:48:04;87.95;;;24.60;;
55114;SDS011;41010;53.252;5.786;2023-11-18T07:50:32;79.97;;;23.75;;
55114;SDS011;41010;53.252;5.786;2023-11-18T07:52:59;77.95;;;23.05;;
55114;SDS011;41010;53.252;5.786;2023-11-18T07:55:27;76.82;;;24.05;;
55114;SDS011;41010;53.252;5.786;2023-11-18T07:57:54;74.03;;;21.75;;
55114;SDS011;41010;53.252;5.786;2023-11-18T08:00:22;76.32;;;23.48;;
55114;SDS011;41010;53.252;5.786;2023-11-18T08:02:51;80.82;;;23.55;;
55114;SDS011;41010;53.252;5.786;2023-11-18T08:05:20;85.78;;;24.25;;
55114;SDS011;41010;53.252;5.786;2023-11-18T08:07:48;80.97;;;22.77;;
55114;SDS011;41010;53.252;5.786;2023-11-18T08:10:16;77.63;;;21.70;;
55114;SDS011;41010;53.252;5.786;2023-11-18T08:12:44;78.22;;;21.08;;
55114;SDS011;41010;53.252;5.786;2023-11-18T08:15:12;74.38;;;22.05;;
55114;SDS011;41010;53.252;5.786;2023-11-18T08:17:39;71.97;;;21.25;;
55114;SDS011;41010;53.252;5.786;2023-11-18T08:20:08;77.68;;;21.58;;
55114;SDS011;41010;53.252;5.786;2023-11-18T08:22:39;75.35;;;22.17;;
55114;SDS011;41010;53.252;5.786;2023-11-18T08:25:09;79.60;;;21.50;;
55114;SDS011;41010;53.252;5.786;2023-11-18T08:27:38;70.55;;;21.33;;
55114;SDS011;41010;53.252;5.786;2023-11-18T08:30:06;79.60;;;20.88;;
55114;SDS011;41010;53.252;5.786;2023-11-18T08:32:36;79.60;;;21.70;;
55114;SDS011;41010;53.252;5.786;2023-11-18T08:35:04;71.53;;;21.35;;
55114;SDS011;41010;53.252;5.786;2023-11-18T08:37:34;70.80;;;20.35;;
55114;SDS011;41010;53.252;5.786;2023-11-18T08:40:01;83.60;;;21.20;;
55114;SDS011;41010;53.252;5.786;2023-11-18T08:42:29;77.32;;;21.88;;
55114;SDS011;41010;53.252;5.786;2023-11-18T08:44:57;74.22;;;21.20;;
55114;SDS011;41010;53.252;5.786;2023-11-18T08:47:24;81.07;;;21.75;;
55114;SDS011;41010;53.252;5.786;2023-11-18T08:49:51;76.57;;;21.13;;
55114;SDS011;41010;53.252;5.786;2023-11-18T08:52:20;84.57;;;22.30;;
55114;SDS011;41010;53.252;5.786;2023-11-18T08:54:49;82.20;;;22.23;;
55114;SDS011;41010;53.252;5.786;2023-11-18T08:57:42;81.30;;;23.13;;
55114;SDS011;41010;53.252;5.786;2023-11-18T09:00:17;81.15;;;21.90;;
55114;SDS011;41010;53.252;5.786;2023-11-18T09:02:58;92.80;;;23.70;;
55114;SDS011;41010;53.252;5.786;2023-11-18T09:05:30;73.18;;;21.50;;
55114;SDS011;41010;53.252;5.786;2023-11-18T09:07:57;76.57;;;21.20;;
55114;SDS011;41010;53.252;5.786;2023-11-18T09:10:27;81.68;;;21.92;;
55114;SDS011;41010;53.252;5.786;2023-11-18T09:12:54;74.75;;;21.88;;
55114;SDS011;41010;53.252;5.786;2023-11-18T09:15:22;76.68;;;21.63;;
55114;SDS011;41010;53.252;5.786;2023-11-18T09:17:49;69.53;;;20.33;;
55114;SDS011;41010;53.252;5.786;2023-11-18T09:20:18;72.53;;;21.15;;
55114;SDS011;41010;53.252;5.786;2023-11-18T09:22:47;72.40;;;22.27;;
55114;SDS011;41010;53.252;5.786;2023-11-18T09:25:14;74.30;;;20.08;;
55114;SDS011;41010;53.252;5.786;2023-11-18T09:27:44;67.28;;;20.52;;
55114;SDS011;41010;53.252;5.786;2023-11-18T09:30:11;66.07;;;21.15;;
55114;SDS011;41010;53.252;5.786;2023-11-18T09:32:40;72.93;;;20.35;;
55114;SDS011;41010;53.252;5.786;2023-11-18T09:35:08;68.35;;;21.95;;
55114;SDS011;41010;53.252;5.786;2023-11-18T09:37:38;68.32;;;19.70;;
55114;SDS011;41010;53.252;5.786;2023-11-18T09:40:06;76.78;;;20.70;;
55114;SDS011;41010;53.252;5.786;2023-11-18T09:42:37;61.53;;;20.02;;
55114;SDS011;41010;53.252;5.786;2023-11-18T09:45:06;76.57;;;19.92;;
55114;SDS011;41010;53.252;5.786;2023-11-18T09:47:39;67.85;;;20.52;;
55114;SDS011;41010;53.252;5.786;2023-11-18T09:52:40;70.40;;;19.95;;
55114;SDS011;41010;53.252;5.786;2023-11-18T09:55:10;69.10;;;19.45;;
55114;SDS011;41010;53.252;5.786;2023-11-18T09:57:40;71.55;;;19.95;;
55114;SDS011;41010;53.252;5.786;2023-11-18T10:00:10;71.30;;;20.63;;
55114;SDS011;41010;53.252;5.786;2023-11-18T10:02:45;61.47;;;18.67;;
55114;SDS011;41010;53.252;5.786;2023-11-18T10:05:12;59.00;;;18.83;;
55114;SDS011;41010;53.252;5.786;2023-11-18T10:07:40;63.10;;;19.30;;
55114;SDS011;41010;53.252;5.786;2023-11-18T10:10:08;60.53;;;19.35;;
55114;SDS011;41010;53.252;5.786;2023-11-18T10:12:40;69.10;;;21.30;;
55114;SDS011;41010;53.252;5.786;2023-11-18T10:15:11;62.70;;;19.40;;
55114;SDS011;41010;53.252;5.786;2023-11-18T10:17:42;61.20;;;20.38;;
55114;SDS011;41010;53.252;5.786;2023-11-18T10:20:20;59.95;;;17.92;;
55114;SDS011;41010;53.252;5.786;2023-11-18T10:25:35;62.92;;;18.50;;
55114;SDS011;41010;53.252;5.786;2023-11-18T10:28:06;64.22;;;18.95;;
55114;SDS011;41010;53.252;5.786;2023-11-18T10:30:43;59.45;;;20.17;;
55114;SDS011;41010;53.252;5.786;2023-11-18T10:33:13;59.85;;;20.40;;
55114;SDS011;41010;53.252;5.786;2023-11-18T10:35:48;61.03;;;19.42;;
55114;SDS011;41010;53.252;5.786;2023-11-18T10:38:17;58.00;;;19.92;;
55114;SDS011;41010;53.252;5.786;2023-11-18T10:40:44;68.85;;;21.00;;
55114;SDS011;41010;53.252;5.786;2023-11-18T10:43:14;61.97;;;20.17;;
55114;SDS011;41010;53.252;5.786;2023-11-18T10:45:43;67.55;;;21.90;;
55114;SDS011;41010;53.252;5.786;2023-11-18T10:48:12;64.07;;;20.85;;
55114;SDS011;41010;53.252;5.786;2023-11-18T10:50:41;65.15;;;20.95;;
55114;SDS011;41010;53.252;5.786;2023-11-18T10:53:09;65.68;;;21.30;;
55114;SDS011;41010;53.252;5.786;2023-11-18T10:55:38;64.57;;;20.10;;
55114;SDS011;41010;53.252;5.786;2023-11-18T10:58:06;62.20;;;19.50;;
55114;SDS011;41010;53.252;5.786;2023-11-18T11:00:47;58.90;;;19.67;;
55114;SDS011;41010;53.252;5.786;2023-11-18T11:03:15;56.03;;;19.40;;
55114;SDS011;41010;53.252;5.786;2023-11-18T11:05:43;58.72;;;20.63;;
55114;SDS011;41010;53.252;5.786;2023-11-18T11:08:11;48.20;;;18.45;;
55114;SDS011;41010;53.252;5.786;2023-11-18T11:10:41;52.72;;;19.40;;
55114;SDS011;41010;53.252;5.786;2023-11-18T11:13:09;50.45;;;19.20;;
55114;SDS011;41010;53.252;5.786;2023-11-18T11:15:39;58.90;;;19.23;;
55114;SDS011;41010;53.252;5.786;2023-11-18T11:18:11;55.20;;;19.77;;
55114;SDS011;41010;53.252;5.786;2023-11-18T11:20:47;55.00;;;17.77;;
55114;SDS011;41010;53.252;5.786;2023-11-18T11:23:18;52.67;;;17.77;;
55114;SDS011;41010;53.252;5.786;2023-11-18T11:25:50;52.70;;;18.33;;
55114;SDS011;41010;53.252;5.786;2023-11-18T11:28:22;56.65;;;19.10;;
55114;SDS011;41010;53.252;5.786;2023-11-18T11:30:53;52.53;;;19.65;;
55114;SDS011;41010;53.252;5.786;2023-11-18T11:33:25;56.60;;;18.38;;
55114;SDS011;41010;53.252;5.786;2023-11-18T11:35:55;53.95;;;18.73;;
55114;SDS011;41010;53.252;5.786;2023-11-18T11:38:23;58.97;;;19.38;;
55114;SDS011;41010;53.252;5.786;2023-11-18T11:40:52;58.58;;;18.67;;
55114;SDS011;41010;53.252;5.786;2023-11-18T11:43:23;57.88;;;18.17;;
55114;SDS011;41010;53.252;5.786;2023-11-18T11:45:53;53.63;;;18.52;;
55114;SDS011;41010;53.252;5.786;2023-11-18T11:48:21;63.65;;;18.70;;
55114;SDS011;41010;53.252;5.786;2023-11-18T11:51:11;67.85;;;18.77;;
55114;SDS011;41010;53.252;5.786;2023-11-18T11:53:47;63.75;;;18.15;;
55114;SDS011;41010;53.252;5.786;2023-11-18T11:56:17;57.58;;;18.00;;
55114;SDS011;41010;53.252;5.786;2023-11-18T11:58:49;61.42;;;18.65;;
55114;SDS011;41010;53.252;5.786;2023-11-18T12:01:24;60.97;;;18.10;;
55114;SDS011;41010;53.252;5.786;2023-11-18T12:03:56;63.00;;;17.23;;
55114;SDS011;41010;53.252;5.786;2023-11-18T12:06:25;54.95;;;16.40;;
55114;SDS011;41010;53.252;5.786;2023-11-18T12:08:53;63.80;;;17.80;;
55114;SDS011;41010;53.252;5.786;2023-11-18T12:11:21;58.95;;;17.58;;
55114;SDS011;41010;53.252;5.786;2023-11-18T12:14:01;65.85;;;17.60;;
55114;SDS011;41010;53.252;5.786;2023-11-18T12:19:29;66.25;;;19.17;;
55114;SDS011;41010;53.252;5.786;2023-11-18T12:21:59;61.35;;;18.13;;
55114;SDS011;41010;53.252;5.786;2023-11-18T12:24:27;82.97;;;19.67;;
55114;SDS011;41010;53.252;5.786;2023-11-18T12:26:58;69.55;;;19.13;;
55114;SDS011;41010;53.252;5.786;2023-11-18T12:29:31;63.75;;;18.27;;
55114;SDS011;41010;53.252;5.786;2023-11-18T12:31:59;63.30;;;17.80;;
55114;SDS011;41010;53.252;5.786;2023-11-18T12:34:49;74.45;;;20.45;;
55114;SDS011;41010;53.252;5.786;2023-11-18T12:37:32;69.75;;;19.40;;
55114;SDS011;41010;53.252;5.786;2023-11-18T12:40:16;71.10;;;20.67;;
55114;SDS011;41010;53.252;5.786;2023-11-18T12:42:59;71.55;;;20.95;;
55114;SDS011;41010;53.252;5.786;2023-11-18T12:48:20;76.25;;;21.05;;
55114;SDS011;41010;53.252;5.786;2023-11-18T12:50:52;80.47;;;20.67;;
55114;SDS011;41010;53.252;5.786;2023-11-18T12:53:22;72.55;;;19.70;;
55114;SDS011;41010;53.252;5.786;2023-11-18T12:55:50;77.05;;;19.05;;
55114;SDS011;41010;53.252;5.786;2023-11-18T12:58:19;63.05;;;19.05;;
55114;SDS011;41010;53.252;5.786;2023-11-18T13:00:48;78.43;;;19.55;;
55114;SDS011;41010;53.252;5.786;2023-11-18T13:03:15;63.33;;;18.25;;
55114;SDS011;41010;53.252;5.786;2023-11-18T13:05:43;59.80;;;18.65;;
55114;SDS011;41010;53.252;5.786;2023-11-18T13:08:10;54.47;;;17.75;;
55114;SDS011;41010;53.252;5.786;2023-11-18T13:10:42;65.75;;;17.35;;
55114;SDS011;41010;53.252;5.786;2023-11-18T13:13:10;61.25;;;16.83;;
55114;SDS011;41010;53.252;5.786;2023-11-18T13:15:40;58.15;;;17.60;;
55114;SDS011;41010;53.252;5.786;2023-11-18T13:18:07;53.95;;;15.85;;
55114;SDS011;41010;53.252;5.786;2023-11-18T13:20:35;59.55;;;17.00;;
55114;SDS011;41010;53.252;5.786;2023-11-18T13:23:04;50.45;;;14.68;;
55114;SDS011;41010;53.252;5.786;2023-11-18T13:25:35;43.22;;;13.80;;
55114;SDS011;41010;53.252;5.786;2023-11-18T13:28:05;42.33;;;14.70;;
55114;SDS011;41010;53.252;5.786;2023-11-18T13:30:36;52.83;;;14.13;;
55114;SDS011;41010;53.252;5.786;2023-11-18T13:33:04;34.75;;;12.63;;
55114;SDS011;41010;53.252;5.786;2023-11-18T13:35:32;38.97;;;13.07;;
55114;SDS011;41010;53.252;5.786;2023-11-18T13:38:00;35.65;;;12.35;;
55114;SDS011;41010;53.252;5.786;2023-11-18T13:40:41;50.95;;;13.13;;
55114;SDS011;41010;53.252;5.786;2023-11-18T13:43:09;41.20;;;12.88;;
55114;SDS011;41010;53.252;5.786;2023-11-18T13:45:37;36.75;;;12.40;;
55114;SDS011;41010;53.252;5.786;2023-11-18T13:48:04;38.28;;;12.02;;
55114;SDS011;41010;53.252;5.786;2023-11-18T13:50:34;33.40;;;11.35;;
55114;SDS011;41010;53.252;5.786;2023-11-18T13:53:02;36.40;;;12.05;;
55114;SDS011;41010;53.252;5.786;2023-11-18T13:55:31;39.13;;;11.68;;
55114;SDS011;41010;53.252;5.786;2023-11-18T13:57:58;32.97;;;11.77;;
55114;SDS011;41010;53.252;5.786;2023-11-18T14:00:27;38.38;;;11.88;;
55114;SDS011;41010;53.252;5.786;2023-11-18T14:02:55;34.15;;;12.15;;
55114;SDS011;41010;53.252;5.786;2023-11-18T14:05:22;35.60;;;11.65;;
55114;SDS011;41010;53.252;5.786;2023-11-18T14:07:51;32.85;;;11.90;;
55114;SDS011;41010;53.252;5.786;2023-11-18T14:10:21;30.50;;;11.80;;
55114;SDS011;41010;53.252;5.786;2023-11-18T14:13:00;32.17;;;11.55;;
55114;SDS011;41010;53.252;5.786;2023-11-18T14:15:29;34.97;;;11.52;;
55114;SDS011;41010;53.252;5.786;2023-11-18T14:17:56;32.67;;;11.45;;
55114;SDS011;41010;53.252;5.786;2023-11-18T14:20:23;36.20;;;11.80;;
55114;SDS011;41010;53.252;5.786;2023-11-18T14:22:51;29.10;;;11.38;;
55114;SDS011;41010;53.252;5.786;2023-11-18T14:25:19;25.35;;;10.40;;
55114;SDS011;41010;53.252;5.786;2023-11-18T14:27:49;29.30;;;11.68;;
55114;SDS011;41010;53.252;5.786;2023-11-18T14:30:16;35.80;;;12.50;;
55114;SDS011;41010;53.252;5.786;2023-11-18T14:32:46;30.67;;;12.05;;
55114;SDS011;41010;53.252;5.786;2023-11-18T14:35:13;34.80;;;12.98;;
55114;SDS011;41010;53.252;5.786;2023-11-18T14:37:42;30.17;;;12.35;;
55114;SDS011;41010;53.252;5.786;2023-11-18T14:40:10;35.53;;;13.32;;
55114;SDS011;41010;53.252;5.786;2023-11-18T14:42:40;27.90;;;12.23;;